Time;durP1;ratioP1;P1;durP2;ratioP2;P2;SDS_P1;SDS_P2;PMS_P1;PMS_P2;Temp;Humidity;BMP_temperature;BMP_pressure;BME280_temperature;BME280_humidity;BME280_pressure;Samples;Min_cycle;Max_cycle;Signal;HPM_P1;HPM_P2
2021/12/27 00:01:41;;;;;;;0.87;0.87;;;16.10;67.20;;;;;;5026608;28;43399;-75
2021/12/27 00:04:09;;;;;;;0.80;0.80;;;16.10;67.10;;;;;;5027378;28;43966;-74
2021/12/27 00:06:37;;;;;;;1.00;1.00;;;16.30;66.80;;;;;;5025205;28;45618;-74
2021/12/27 00:09:05;;;;;;;1.10;1.10;;;16.40;66.40;;;;;;5026563;28;44101;-74
2021/12/27 00:11:33;;;;;;;0.90;0.90;;;16.50;65.90;;;;;;5026391;28;44095;-75
2021/12/27 00:14:01;;;;;;;0.90;0.90;;;16.50;65.60;;;;;;5026942;28;43960;-74
2021/12/27 00:16:29;;;;;;;0.77;0.77;;;16.50;65.70;;;;;;5026483;28;44955;-75
2021/12/27 00:18:59;;;;;;;1.00;1.00;;;16.40;65.80;;;;;;5026428;28;44029;-76
2021/12/27 00:21:27;;;;;;;0.80;0.80;;;16.30;66.00;;;;;;5026241;28;43998;-76
2021/12/27 00:23:55;;;;;;;0.90;0.90;;;16.30;66.30;;;;;;5026727;28;43490;-74
2021/12/27 00:26:24;;;;;;;0.90;0.90;;;16.20;66.40;;;;;;5026184;28;43831;-75
2021/12/27 00:28:52;;;;;;;0.80;0.80;;;16.10;66.50;;;;;;5026541;28;44114;-75
2021/12/27 00:31:20;;;;;;;0.90;0.90;;;16.10;66.70;;;;;;5026638;28;44152;-74
2021/12/27 00:33:48;;;;;;;1.00;1.00;;;16.10;66.90;;;;;;5026948;28;44259;-74
2021/12/27 00:36:17;;;;;;;0.97;0.97;;;16.00;66.90;;;;;;5026131;28;43952;-75
2021/12/27 00:38:45;;;;;;;1.00;1.00;;;16.00;67.00;;;;;;5024724;28;44041;-75
2021/12/27 00:41:13;;;;;;;1.10;1.10;;;16.00;67.30;;;;;;5024617;28;43379;-75
2021/12/27 00:43:41;;;;;;;0.80;0.80;;;16.00;67.40;;;;;;5026546;28;43834;-75
2021/12/27 00:46:09;;;;;;;0.90;0.90;;;16.20;67.00;;;;;;5025863;28;43957;-76
2021/12/27 00:48:37;;;;;;;1.00;1.00;;;16.30;66.50;;;;;;5025581;28;43957;-74
2021/12/27 00:51:08;;;;;;;1.00;1.00;;;16.40;66.20;;;;;;5024878;28;44044;-75
2021/12/27 00:53:37;;;;;;;1.10;1.10;;;16.40;66.10;;;;;;5020257;28;43970;-75
2021/12/27 00:56:05;;;;;;;0.90;0.90;;;16.30;66.10;;;;;;5024675;28;45610;-75
2021/12/27 00:58:33;;;;;;;1.10;1.10;;;16.30;66.30;;;;;;5024562;28;44719;-74
2021/12/27 01:01:02;;;;;;;1.20;1.20;;;16.20;66.40;;;;;;5019847;28;43998;-74
2021/12/27 01:03:30;;;;;;;0.90;0.90;;;16.10;66.50;;;;;;5020157;28;43913;-76
2021/12/27 01:05:58;;;;;;;0.97;0.97;;;16.10;66.70;;;;;;5025644;28;45112;-74
2021/12/27 01:08:26;;;;;;;0.90;0.90;;;16.00;66.80;;;;;;5025066;28;44754;-76
2021/12/27 01:11:12;;;;;;;0.90;0.90;;;16.00;67.00;;;;;;5028113;28;43416;-75
2021/12/27 01:13:43;;;;;;;1.03;1.03;;;16.00;67.10;;;;;;5028502;28;43996;-75
2021/12/27 01:16:12;;;;;;;1.00;1.00;;;16.00;67.20;;;;;;5029487;28;44020;-75
2021/12/27 01:18:43;;;;;;;0.90;0.90;;;15.90;67.20;;;;;;5029129;28;43932;-74
2021/12/27 01:21:11;;;;;;;1.00;1.00;;;15.90;67.40;;;;;;5028070;28;44031;-76
2021/12/27 01:23:39;;;;;;;0.90;0.90;;;15.90;67.50;;;;;;5029429;28;43902;-76
2021/12/27 01:26:08;;;;;;;1.07;1.07;;;16.00;67.30;;;;;;5028949;28;44019;-76
2021/12/27 01:28:36;;;;;;;1.00;1.00;;;16.10;66.90;;;;;;5027868;28;44317;-75
2021/12/27 01:31:04;;;;;;;0.90;0.90;;;16.20;66.50;;;;;;5029109;28;43804;-74
2021/12/27 01:33:32;;;;;;;1.00;1.00;;;16.20;66.20;;;;;;5029323;28;43562;-75
2021/12/27 01:36:02;;;;;;;0.97;0.97;;;16.20;66.40;;;;;;5028989;28;44808;-74
2021/12/27 01:38:30;;;;;;;0.80;0.80;;;16.10;66.40;;;;;;5028852;28;43970;-74
2021/12/27 01:40:58;;;;;;;0.87;0.87;;;16.10;66.60;;;;;;5027542;28;44017;-76
2021/12/27 01:43:28;;;;;;;1.00;1.00;;;16.10;66.90;;;;;;5029123;28;43546;-75
2021/12/27 01:45:58;;;;;;;1.00;1.00;;;16.00;67.00;;;;;;5027129;28;47033;-75
2021/12/27 01:48:29;;;;;;;1.10;1.10;;;15.90;67.00;;;;;;5028477;28;44061;-75
2021/12/27 01:50:57;;;;;;;0.90;0.90;;;15.90;67.10;;;;;;5029087;28;44086;-75
2021/12/27 01:53:26;;;;;;;1.00;1.00;;;15.90;67.20;;;;;;5027596;28;43940;-74
2021/12/27 01:55:54;;;;;;;0.90;0.90;;;15.90;67.40;;;;;;5028588;28;43914;-76
2021/12/27 01:58:22;;;;;;;1.00;1.00;;;15.90;67.40;;;;;;5028702;28;44097;-76
2021/12/27 02:00:53;;;;;;;1.10;1.10;;;15.80;67.40;;;;;;5027628;28;43997;-74
2021/12/27 02:03:23;;;;;;;1.10;1.10;;;15.80;67.60;;;;;;5029325;28;43811;-76
2021/12/27 02:05:51;;;;;;;0.97;0.97;;;15.90;67.50;;;;;;5028689;28;43958;-75
2021/12/27 02:08:21;;;;;;;1.10;1.10;;;16.00;67.20;;;;;;5028616;28;43987;-74
2021/12/27 02:10:50;;;;;;;1.10;1.10;;;16.20;66.80;;;;;;5028956;28;44055;-75
2021/12/27 02:13:18;;;;;;;1.10;1.10;;;16.30;66.40;;;;;;5028750;28;44098;-75
2021/12/27 02:15:46;;;;;;;0.97;0.97;;;16.30;66.10;;;;;;5028252;28;43529;-75
2021/12/27 02:18:15;;;;;;;1.00;1.00;;;16.20;66.10;;;;;;5028369;28;44465;-75
2021/12/27 02:20:45;;;;;;;1.10;1.10;;;16.20;66.40;;;;;;5019359;28;43980;-74
2021/12/27 02:23:16;;;;;;;1.00;1.00;;;16.10;66.50;;;;;;5022103;28;43573;-76
2021/12/27 02:25:44;;;;;;;1.10;1.10;;;16.00;66.70;;;;;;5022363;28;43921;-74
2021/12/27 02:28:13;;;;;;;1.10;1.10;;;16.00;66.90;;;;;;5028018;28;43968;-77
2021/12/27 02:30:41;;;;;;;1.10;1.10;;;16.00;67.10;;;;;;5026762;28;43440;-76
2021/12/27 02:33:09;;;;;;;1.07;1.07;;;15.90;67.20;;;;;;5028478;28;43585;-76
2021/12/27 02:35:39;;;;;;;1.00;1.00;;;15.90;67.30;;;;;;5027952;28;43959;-74
2021/12/27 02:38:10;;;;;;;1.00;1.00;;;15.80;67.30;;;;;;5027751;28;44004;-75
2021/12/27 02:40:38;;;;;;;1.00;1.00;;;15.80;67.40;;;;;;5028166;28;43869;-76
2021/12/27 02:43:07;;;;;;;0.97;0.97;;;15.80;67.50;;;;;;5028083;28;44131;-74
2021/12/27 02:45:38;;;;;;;1.10;1.10;;;15.80;67.70;;;;;;5027762;28;43905;-76
2021/12/27 02:48:06;;;;;;;1.00;1.00;;;15.90;67.40;;;;;;5025975;28;44670;-76
2021/12/27 02:50:35;;;;;;;1.00;1.00;;;16.00;67.00;;;;;;5028010;28;43957;-76
2021/12/27 02:53:03;;;;;;;0.90;0.90;;;16.00;66.80;;;;;;5027934;28;44225;-76
2021/12/27 02:55:32;;;;;;;0.97;0.97;;;16.00;66.90;;;;;;5026126;28;45838;-75
2021/12/27 02:58:00;;;;;;;0.83;0.83;;;15.90;66.90;;;;;;5027611;28;43880;-76
2021/12/27 03:00:47;;;;;;;1.00;1.00;;;15.90;67.00;;;;;;5027774;28;43555;-73
2021/12/27 03:03:15;;;;;;;1.00;1.00;;;15.90;67.20;;;;;;5027699;28;44145;-75
2021/12/27 03:05:44;;;;;;;0.90;0.90;;;15.80;67.30;;;;;;5026095;28;45844;-74
2021/12/27 03:08:14;;;;;;;0.97;0.97;;;15.80;67.40;;;;;;5025995;28;45990;-75
2021/12/27 03:10:44;;;;;;;0.90;0.90;;;15.80;67.50;;;;;;5027326;28;44027;-76
2021/12/27 03:13:15;;;;;;;0.90;0.90;;;15.70;67.50;;;;;;5027961;28;43762;-76
2021/12/27 03:15:44;;;;;;;1.00;1.00;;;15.70;67.60;;;;;;5027514;28;43945;-74
2021/12/27 03:18:12;;;;;;;0.93;0.93;;;15.70;67.60;;;;;;5025827;28;44820;-76
2021/12/27 03:20:40;;;;;;;1.00;1.00;;;15.70;67.70;;;;;;5027466;28;43927;-74
2021/12/27 03:23:08;;;;;;;1.10;1.10;;;15.70;67.70;;;;;;5026344;28;43897;-77
2021/12/27 03:25:36;;;;;;;0.90;0.90;;;15.70;67.90;;;;;;5025806;28;45604;-77
2021/12/27 03:28:05;;;;;;;1.10;1.10;;;15.80;67.90;;;;;;5026082;28;44461;-75
2021/12/27 03:30:33;;;;;;;1.10;1.10;;;15.90;67.50;;;;;;5025889;28;43929;-76
2021/12/27 03:33:02;;;;;;;0.90;0.90;;;16.10;67.00;;;;;;5025689;28;43582;-73
2021/12/27 03:35:35;;;;;;;0.90;0.90;;;16.20;66.40;;;;;;5026996;28;43931;-75
2021/12/27 03:38:05;;;;;;;1.00;1.00;;;16.30;66.00;;;;;;5025641;28;44087;-73
2021/12/27 03:40:32;;;;;;;1.00;1.00;;;16.30;66.00;;;;;;5027050;28;43950;-75
2021/12/27 03:43:00;;;;;;;0.90;0.90;;;16.20;66.10;;;;;;5027222;28;44273;-76
2021/12/27 03:45:31;;;;;;;0.90;0.90;;;16.10;67.00;;;;;;5026795;28;43945;-75
2021/12/27 03:47:59;;;;;;;0.80;0.80;;;16.00;66.40;;;;;;5026688;28;44046;-75
2021/12/27 03:50:27;;;;;;;0.90;0.90;;;16.00;66.70;;;;;;5027043;28;43391;-76
2021/12/27 03:52:56;;;;;;;0.90;0.90;;;15.90;66.90;;;;;;5027106;28;44045;-76
2021/12/27 03:55:24;;;;;;;1.00;1.00;;;15.90;67.10;;;;;;5026674;28;44060;-76
2021/12/27 03:57:54;;;;;;;1.00;1.00;;;15.80;67.10;;;;;;5025814;28;44613;-75
2021/12/27 04:00:44;;;;;;;0.87;0.87;;;15.80;67.30;;;;;;5027018;28;43936;-76
2021/12/27 04:03:13;;;;;;;0.90;0.90;;;15.80;67.40;;;;;;5027156;28;43914;-75
2021/12/27 04:05:41;;;;;;;0.90;0.90;;;15.70;67.40;;;;;;5026509;28;44154;-75
2021/12/27 04:08:10;;;;;;;0.93;0.93;;;15.70;67.70;;;;;;5027022;28;44105;-76
2021/12/27 04:10:38;;;;;;;1.03;1.03;;;15.80;67.60;;;;;;5025099;28;43948;-74
2021/12/27 04:13:06;;;;;;;1.00;1.00;;;15.90;67.20;;;;;;5026999;28;43992;-76
2021/12/27 04:15:34;;;;;;;0.97;0.97;;;15.90;66.90;;;;;;5025026;28;45523;-76
2021/12/27 04:18:02;;;;;;;0.90;0.90;;;15.90;66.90;;;;;;5026461;28;43903;-74
2021/12/27 04:20:32;;;;;;;0.80;0.80;;;15.90;67.00;;;;;;5026416;28;44015;-77
2021/12/27 04:23:00;;;;;;;0.80;0.80;;;15.80;67.00;;;;;;5026814;28;43991;-74
2021/12/27 04:25:28;;;;;;;0.80;0.80;;;15.80;67.30;;;;;;5024725;28;45807;-74
2021/12/27 04:27:56;;;;;;;0.80;0.80;;;15.80;67.40;;;;;;5026330;28;44014;-75
2021/12/27 04:30:24;;;;;;;0.93;0.93;;;15.70;67.40;;;;;;5026520;28;44056;-75
2021/12/27 04:32:52;;;;;;;0.93;0.93;;;15.70;68.30;;;;;;5026924;28;43379;-75
2021/12/27 04:35:20;;;;;;;0.70;0.70;;;15.70;67.60;;;;;;5026471;28;45029;-75
2021/12/27 04:37:49;;;;;;;0.90;0.90;;;15.70;67.70;;;;;;5024782;28;45091;-75
2021/12/27 04:40:18;;;;;;;0.80;0.80;;;15.60;67.60;;;;;;5024872;28;44110;-75
2021/12/27 04:42:47;;;;;;;1.10;1.10;;;15.60;67.70;;;;;;5025889;28;44071;-75
2021/12/27 04:45:16;;;;;;;0.80;0.80;;;15.60;67.70;;;;;;5025797;28;43779;-75
2021/12/27 04:47:44;;;;;;;0.80;0.80;;;15.60;67.80;;;;;;5026002;28;43900;-75
2021/12/27 04:50:12;;;;;;;0.90;0.90;;;15.60;67.90;;;;;;5024606;28;44038;-75
2021/12/27 04:52:40;;;;;;;0.80;0.80;;;15.70;67.70;;;;;;5026472;28;44245;-74
2021/12/27 04:55:10;;;;;;;0.67;0.67;;;15.90;67.40;;;;;;5025853;28;44787;-75
2021/12/27 04:57:38;;;;;;;0.90;0.90;;;16.00;66.90;;;;;;5025742;28;43959;-75
2021/12/27 05:00:07;;;;;;;0.70;0.70;;;16.10;66.50;;;;;;5026100;28;43984;-76
2021/12/27 05:02:35;;;;;;;0.80;0.80;;;16.10;66.20;;;;;;5026157;28;43983;-74
2021/12/27 05:05:03;;;;;;;0.90;0.90;;;16.10;66.40;;;;;;5025749;28;44068;-76
2021/12/27 05:07:31;;;;;;;1.00;1.00;;;16.00;66.40;;;;;;5025767;28;43930;-74
2021/12/27 05:09:59;;;;;;;0.80;0.80;;;15.90;66.50;;;;;;5025928;28;43827;-74
2021/12/27 05:12:29;;;;;;;0.80;0.80;;;15.90;66.80;;;;;;5026110;28;44046;-74
2021/12/27 05:14:57;;;;;;;0.70;0.70;;;15.80;66.90;;;;;;5025934;28;45138;-74
2021/12/27 05:17:27;;;;;;;0.77;0.77;;;15.80;67.20;;;;;;5026455;28;43995;-80
2021/12/27 05:19:55;;;;;;;0.80;0.80;;;15.70;67.20;;;;;;5018280;28;44053;-76
2021/12/27 05:22:24;;;;;;;0.73;0.73;;;15.80;67.40;;;;;;5020063;28;43559;-75
2021/12/27 05:24:52;;;;;;;1.07;1.07;;;15.70;67.40;;;;;;5025738;28;44078;-75
2021/12/27 05:27:20;;;;;;;0.93;0.93;;;15.70;67.60;;;;;;5019576;28;43745;-75
2021/12/27 05:30:11;;;;;;;1.27;1.20;;;15.60;67.50;;;;;;5022275;28;43972;-75
2021/12/27 05:32:40;;;;;;;1.50;1.50;;;15.70;67.90;;;;;;5026235;28;44003;-76
2021/12/27 05:35:09;;;;;;;1.23;1.23;;;15.70;67.70;;;;;;5025529;28;43900;-76
2021/12/27 05:37:37;;;;;;;1.30;1.30;;;15.80;67.20;;;;;;5025491;28;43924;-76
2021/12/27 05:40:07;;;;;;;2.00;1.50;;;15.80;67.00;;;;;;5024087;28;44018;-76
2021/12/27 05:42:35;;;;;;;1.47;1.37;;;15.80;67.00;;;;;;5025795;28;43904;-76
2021/12/27 05:45:04;;;;;;;1.33;1.33;;;15.80;67.10;;;;;;5025372;28;43956;-79
2021/12/27 05:47:33;;;;;;;1.60;1.50;;;15.70;67.20;;;;;;5023845;28;43369;-75
2021/12/27 05:50:01;;;;;;;1.50;1.40;;;15.70;67.40;;;;;;5023875;28;44058;-75
2021/12/27 05:52:29;;;;;;;1.90;1.80;;;15.70;67.50;;;;;;5025881;28;43988;-76
2021/12/27 05:54:57;;;;;;;2.10;2.00;;;15.70;67.60;;;;;;5025285;28;46834;-75
2021/12/27 05:57:25;;;;;;;2.93;2.40;;;15.60;67.50;;;;;;5028658;28;43993;-77
2021/12/27 05:59:53;;;;;;;2.60;2.40;;;15.60;67.50;;;;;;5027662;28;44062;-75
2021/12/27 06:02:21;;;;;;;5.33;2.87;;;15.70;67.70;;;;;;5029205;28;43910;-75
2021/12/27 06:04:51;;;;;;;3.43;3.00;;;15.70;67.60;;;;;;5028482;28;44064;-76
2021/12/27 06:07:19;;;;;;;7.23;3.47;;;15.70;67.70;;;;;;5027120;28;44643;-74
2021/12/27 06:09:47;;;;;;;7.00;3.83;;;15.70;67.60;;;;;;5028648;28;44016;-76
2021/12/27 06:12:14;;;;;;;6.87;3.77;;;15.70;67.70;;;;;;5027504;28;43570;-76
2021/12/27 06:14:42;;;;;;;10.33;4.70;;;15.70;67.60;;;;;;5026663;28;46024;-76
2021/12/27 06:17:10;;;;;;;12.33;4.63;;;15.80;67.30;;;;;;5026840;28;43966;-76
2021/12/27 06:19:38;;;;;;;7.00;4.80;;;16.00;66.90;;;;;;5028487;28;43925;-76
2021/12/27 06:22:09;;;;;;;12.43;5.20;;;16.20;66.50;;;;;;5027223;28;43566;-76
2021/12/27 06:24:37;;;;;;;10.87;5.63;;;16.30;66.00;;;;;;5026550;28;46452;-76
2021/12/27 06:27:05;;;;;;;12.43;5.53;;;16.30;65.50;;;;;;5028101;28;43897;-76
2021/12/27 06:29:33;;;;;;;12.80;5.80;;;16.30;65.40;;;;;;5028229;28;44028;-76
2021/12/27 06:32:01;;;;;;;12.00;5.30;;;16.30;65.70;;;;;;5028714;28;44033;-75
2021/12/27 06:34:29;;;;;;;10.47;5.27;;;16.20;65.80;;;;;;5028058;28;43762;-75
2021/12/27 06:36:57;;;;;;;12.73;5.27;;;16.10;66.00;;;;;;5028217;28;43945;-78
2021/12/27 06:39:26;;;;;;;9.73;5.27;;;16.10;66.30;;;;;;5026689;28;43956;-75
2021/12/27 06:41:54;;;;;;;12.93;5.40;;;16.00;66.40;;;;;;5028512;28;44272;-75
2021/12/27 06:44:22;;;;;;;11.33;5.80;;;16.00;66.60;;;;;;5026516;28;45884;-76
2021/12/27 06:46:52;;;;;;;11.17;5.47;;;15.90;66.60;;;;;;5027386;28;43855;-75
2021/12/27 06:49:20;;;;;;;11.90;5.63;;;15.90;66.70;;;;;;5027927;28;43771;-76
2021/12/27 06:51:48;;;;;;;14.37;6.33;;;15.90;66.90;;;;;;5026864;28;44032;-76
2021/12/27 06:54:16;;;;;;;12.43;6.27;;;15.90;67.80;;;;;;5027636;28;43877;-78
2021/12/27 06:56:46;;;;;;;14.20;5.97;;;15.90;67.00;;;;;;5026366;28;44731;-77
2021/12/27 06:59:14;;;;;;;10.63;5.53;;;16.00;66.80;;;;;;5027955;28;43995;-76
2021/12/27 07:01:43;;;;;;;14.50;6.50;;;16.10;66.40;;;;;;5026619;28;43985;-76
2021/12/27 07:04:11;;;;;;;11.73;6.27;;;16.10;66.30;;;;;;5026001;28;47237;-77
2021/12/27 07:06:39;;;;;;;13.57;6.10;;;16.10;66.40;;;;;;5026670;28;43976;-77
2021/12/27 07:09:07;;;;;;;11.70;6.03;;;16.00;66.50;;;;;;5027659;28;43929;-77
2021/12/27 07:11:36;;;;;;;12.63;6.00;;;16.00;66.70;;;;;;5026709;28;44119;-76
2021/12/27 07:14:05;;;;;;;10.67;6.27;;;15.90;66.80;;;;;;5025817;28;45645;-76
2021/12/27 07:16:33;;;;;;;8.10;5.03;;;15.90;67.00;;;;;;5027364;28;44079;-77
2021/12/27 07:19:01;;;;;;;11.77;5.80;;;15.80;67.00;;;;;;5027536;28;44033;-76
2021/12/27 07:21:29;;;;;;;11.37;5.80;;;15.80;67.10;;;;;;5026186;28;44022;-75
2021/12/27 07:23:57;;;;;;;9.70;5.67;;;15.80;67.30;;;;;;5027132;28;44784;-75
2021/12/27 07:26:25;;;;;;;11.57;5.80;;;15.80;67.30;;;;;;5027205;28;44083;-74
2021/12/27 07:28:53;;;;;;;9.63;5.57;;;15.70;67.30;;;;;;5026095;28;43976;-75
2021/12/27 07:31:23;;;;;;;11.97;6.13;;;15.70;67.40;;;;;;5028011;28;43594;-75
2021/12/27 07:33:52;;;;;;;8.53;5.60;;;15.70;67.40;;;;;;5027084;28;43983;-77
2021/12/27 07:36:23;;;;;;;12.13;5.70;;;15.70;67.60;;;;;;5027033;28;43494;-74
2021/12/27 07:38:51;;;;;;;13.17;6.03;;;15.80;67.50;;;;;;5027309;28;43869;-75
2021/12/27 07:41:20;;;;;;;12.00;6.23;;;15.90;67.20;;;;;;5021051;28;44094;-75
2021/12/27 07:43:47;;;;;;;11.47;6.23;;;16.00;66.70;;;;;;5020448;28;43923;-75
2021/12/27 07:46:19;;;;;;;11.60;6.10;;;16.20;66.30;;;;;;5021183;28;43539;-74
2021/12/27 07:48:48;;;;;;;9.80;5.20;;;16.30;65.90;;;;;;5026549;28;43990;-74
2021/12/27 07:51:16;;;;;;;8.00;5.53;;;16.30;65.70;;;;;;5027201;28;43968;-75
2021/12/27 07:53:45;;;;;;;9.33;5.50;;;16.30;65.80;;;;;;5025313;28;43990;-75
2021/12/27 07:56:13;;;;;;;7.53;5.30;;;16.20;66.00;;;;;;5025314;28;45623;-75
2021/12/27 07:58:41;;;;;;;9.10;5.83;;;16.10;66.10;;;;;;5025083;28;43907;-76
2021/12/27 08:01:09;;;;;;;8.73;4.87;;;16.10;66.40;;;;;;5027163;28;43822;-75
2021/12/27 08:03:36;;;;;;;12.03;5.30;;;16.00;66.50;;;;;;5024936;28;46538;-75
2021/12/27 08:06:06;;;;;;;8.30;5.57;;;16.00;66.70;;;;;;5025159;28;44651;-75
2021/12/27 08:08:34;;;;;;;9.77;5.37;;;16.00;66.80;;;;;;5025642;28;44264;-74
2021/12/27 08:11:02;;;;;;;6.33;5.03;;;15.90;66.80;;;;;;5026810;28;43982;-74
2021/12/27 08:13:30;;;;;;;9.90;5.70;;;15.90;66.90;;;;;;5026343;28;45136;-75
2021/12/27 08:15:58;;;;;;;10.50;5.67;;;15.90;67.00;;;;;;5026199;28;43928;-74
2021/12/27 08:18:26;;;;;;;10.03;5.60;;;15.90;67.20;;;;;;5025535;28;43425;-75
2021/12/27 08:20:54;;;;;;;8.83;5.70;;;15.90;67.10;;;;;;5027454;28;43998;-74
2021/12/27 08:23:23;;;;;;;10.97;5.40;;;16.00;66.70;;;;;;5026457;28;43881;-77
2021/12/27 08:25:51;;;;;;;8.03;5.13;;;16.10;66.50;;;;;;5026174;28;44024;-75
2021/12/27 08:28:19;;;;;;;5.97;4.40;;;16.10;66.40;;;;;;5026824;28;44424;-74
2021/12/27 08:30:47;;;;;;;8.67;5.63;;;16.10;66.60;;;;;;5025258;28;43885;-75
2021/12/27 08:33:15;;;;;;;9.43;4.83;;;16.00;66.60;;;;;;5026224;28;43977;-76
2021/12/27 08:35:43;;;;;;;7.13;4.60;;;16.00;66.80;;;;;;5026105;28;43968;-77
2021/12/27 08:38:11;;;;;;;10.13;5.10;;;15.90;66.90;;;;;;5026187;28;43866;-74
2021/12/27 08:40:41;;;;;;;8.40;5.23;;;15.90;67.00;;;;;;5026551;28;44007;-75
2021/12/27 08:43:09;;;;;;;6.63;5.07;;;15.90;67.10;;;;;;5025892;28;45226;-75
2021/12/27 08:45:38;;;;;;;7.53;4.90;;;15.90;67.20;;;;;;5025834;28;44036;-75
2021/12/27 08:48:06;;;;;;;7.37;4.87;;;15.80;67.20;;;;;;5025808;28;44117;-75
2021/12/27 08:50:37;;;;;;;6.00;4.67;;;15.80;67.30;;;;;;5025015;28;43889;-75
2021/12/27 08:53:08;;;;;;;7.53;5.20;;;15.80;67.40;;;;;;5026315;28;44989;-74
2021/12/27 08:55:37;;;;;;;7.13;5.10;;;15.80;67.40;;;;;;5025984;28;43459;-74
2021/12/27 08:58:06;;;;;;;8.73;5.20;;;15.80;67.40;;;;;;5026004;28;43963;-77
2021/12/27 09:00:34;;;;;;;7.03;4.73;;;15.80;67.50;;;;;;5026313;28;43957;-74
2021/12/27 09:03:02;;;;;;;7.40;5.03;;;15.90;67.40;;;;;;5024543;28;45338;-76
2021/12/27 09:05:30;;;;;;;7.57;4.83;;;16.00;67.20;;;;;;5024325;28;46080;-75
2021/12/27 09:07:58;;;;;;;7.77;5.10;;;16.10;66.70;;;;;;5024286;28;44079;-75
2021/12/27 09:10:26;;;;;;;7.20;4.23;;;16.30;66.30;;;;;;5026084;28;43935;-76
2021/12/27 09:12:54;;;;;;;6.53;4.47;;;16.30;65.90;;;;;;5025013;28;45335;-75
2021/12/27 09:15:23;;;;;;;8.20;4.67;;;16.30;65.70;;;;;;5025887;28;43975;-75
2021/12/27 09:17:51;;;;;;;6.87;4.73;;;16.30;65.90;;;;;;5024643;28;43921;-75
2021/12/27 09:20:20;;;;;;;6.13;4.33;;;16.20;66.80;;;;;;5026370;28;44076;-75
2021/12/27 09:22:47;;;;;;;4.43;4.03;;;16.10;66.30;;;;;;5025608;28;43943;-74
2021/12/27 09:25:15;;;;;;;5.00;4.37;;;16.10;66.50;;;;;;5025583;28;44013;-74
2021/12/27 09:27:43;;;;;;;4.80;3.93;;;16.00;66.70;;;;;;5025709;28;43908;-75
2021/12/27 09:30:15;;;;;;;6.50;4.27;;;16.00;66.90;;;;;;5026362;28;43523;-75
2021/12/27 09:32:45;;;;;;;5.27;4.63;;;15.90;66.90;;;;;;5028754;28;43848;-75
2021/12/27 09:35:13;;;;;;;5.33;4.50;;;15.90;67.00;;;;;;5028746;28;44063;-74
2021/12/27 09:37:40;;;;;;;5.33;3.90;;;15.90;67.20;;;;;;5028899;28;44037;-75
2021/12/27 09:40:10;;;;;;;6.70;4.10;;;15.90;67.20;;;;;;5028988;28;43964;-74
2021/12/27 09:42:38;;;;;;;7.07;4.57;;;15.90;67.40;;;;;;5028809;28;44090;-75
2021/12/27 09:45:07;;;;;;;5.17;4.20;;;15.90;67.30;;;;;;5028697;28;43930;-74
2021/12/27 09:47:35;;;;;;;4.30;3.77;;;16.00;67.00;;;;;;5027124;28;44015;-74
2021/12/27 09:50:20;;;;;;;5.30;4.20;;;16.10;66.80;;;;;;5029328;28;43897;-74
2021/12/27 09:52:48;;;;;;;3.80;3.50;;;16.10;66.70;;;;;;5022271;28;44010;-74
2021/12/27 09:55:16;;;;;;;4.03;3.70;;;16.10;66.80;;;;;;5027168;28;44088;-74
2021/12/27 09:57:44;;;;;;;4.17;3.60;;;16.00;66.90;;;;;;5020735;28;43813;-74
2021/12/27 10:00:13;;;;;;;5.40;4.20;;;15.90;66.90;;;;;;5022489;28;44284;-75
2021/12/27 10:02:41;;;;;;;4.60;3.77;;;15.90;67.10;;;;;;5022083;28;45130;-74
2021/12/27 10:05:09;;;;;;;3.60;3.40;;;15.90;67.20;;;;;;5022121;28;43953;-75
2021/12/27 10:07:41;;;;;;;3.77;3.47;;;15.90;67.30;;;;;;5022378;28;44015;-74
2021/12/27 10:10:17;;;;;;;3.80;3.50;;;15.80;67.40;;;;;;5024144;28;43907;-75
2021/12/27 10:12:45;;;;;;;3.47;3.20;;;15.90;67.50;;;;;;5026757;28;45624;-75
2021/12/27 10:15:14;;;;;;;3.83;3.40;;;15.80;67.40;;;;;;5026799;28;44673;-78
2021/12/27 10:17:43;;;;;;;4.10;3.70;;;15.80;67.50;;;;;;5028346;28;43416;-74
2021/12/27 10:20:12;;;;;;;3.90;3.60;;;15.80;67.50;;;;;;5026016;28;44080;-74
2021/12/27 10:22:42;;;;;;;3.63;3.30;;;15.80;67.60;;;;;;5026820;28;43949;-76
2021/12/27 10:25:13;;;;;;;3.20;3.00;;;15.80;67.70;;;;;;5025952;28;44620;-74
2021/12/27 10:27:42;;;;;;;3.73;3.43;;;15.90;67.50;;;;;;5025459;28;43984;-74
2021/12/27 10:30:11;;;;;;;3.27;3.07;;;16.00;67.20;;;;;;5027262;28;43791;-75
2021/12/27 10:32:39;;;;;;;3.83;3.53;;;16.20;66.70;;;;;;5027018;28;44347;-77
2021/12/27 10:35:08;;;;;;;3.40;3.20;;;16.30;66.40;;;;;;5026259;28;45120;-75
2021/12/27 10:37:52;;;;;;;3.73;3.43;;;16.30;66.00;;;;;;5026164;28;43948;-76
2021/12/27 10:40:21;;;;;;;3.50;3.30;;;16.30;66.00;;;;;;5028029;28;43985;-74
2021/12/27 10:42:50;;;;;;;3.93;3.23;;;16.30;66.20;;;;;;5026138;28;43579;-74
2021/12/27 10:45:22;;;;;;;3.27;2.97;;;16.20;66.30;;;;;;5027995;28;43889;-74
2021/12/27 10:47:51;;;;;;;3.80;3.40;;;16.10;66.50;;;;;;5026229;28;44494;-74
2021/12/27 10:50:23;;;;;;;3.13;2.90;;;16.10;66.80;;;;;;5027836;28;43976;-74
2021/12/27 10:52:55;;;;;;;3.33;3.13;;;16.00;66.90;;;;;;5021849;28;44023;-75
2021/12/27 10:55:24;;;;;;;3.47;3.20;;;16.00;67.10;;;;;;5027636;28;44078;-76
2021/12/27 10:57:52;;;;;;;2.80;2.60;;;15.90;67.10;;;;;;5027881;28;43945;-75
2021/12/27 11:00:26;;;;;;;3.27;3.07;;;15.90;67.20;;;;;;5028210;28;44210;-75
2021/12/27 11:02:55;;;;;;;3.33;3.13;;;15.90;67.30;;;;;;5027578;28;44824;-74
2021/12/27 11:05:24;;;;;;;2.77;2.67;;;15.90;67.40;;;;;;5026257;28;44821;-74
2021/12/27 11:07:54;;;;;;;3.07;2.87;;;15.90;67.40;;;;;;5026277;28;44127;-75
2021/12/27 11:10:22;;;;;;;3.03;2.83;;;16.00;67.40;;;;;;5025249;28;43973;-76
2021/12/27 11:12:50;;;;;;;3.10;2.90;;;16.10;66.80;;;;;;5027522;28;44157;-76
2021/12/27 11:15:18;;;;;;;3.40;3.10;;;16.10;66.70;;;;;;5025935;28;44713;-75
2021/12/27 11:17:46;;;;;;;3.10;2.90;;;16.10;66.70;;;;;;5027585;28;43341;-75
2021/12/27 11:20:14;;;;;;;3.07;2.87;;;16.10;66.90;;;;;;5026474;28;44048;-76
2021/12/27 11:22:44;;;;;;;3.23;3.03;;;16.00;67.00;;;;;;5027146;28;43930;-76
2021/12/27 11:25:27;;;;;;;2.70;2.60;;;16.00;67.10;;;;;;5024677;28;44584;-77
2021/12/27 11:27:55;;;;;;;2.70;2.57;;;15.90;67.20;;;;;;5026062;28;44068;-76
2021/12/27 11:30:25;;;;;;;2.73;2.63;;;15.90;67.30;;;;;;5026341;28;44112;-73
2021/12/27 11:33:00;;;;;;;2.63;2.53;;;15.90;67.40;;;;;;5027123;28;44026;-76
2021/12/27 11:35:31;;;;;;;2.70;2.60;;;15.90;67.50;;;;;;5027208;28;43304;-77
2021/12/27 11:38:01;;;;;;;3.00;2.63;;;15.90;67.50;;;;;;5020913;28;44020;-74
2021/12/27 11:40:41;;;;;;;2.93;2.73;;;15.90;67.60;;;;;;5024026;28;43978;-74
2021/12/27 11:43:09;;;;;;;2.47;2.37;;;15.90;67.60;;;;;;5021579;28;45991;-75
2021/12/27 11:45:38;;;;;;;2.70;2.60;;;15.80;67.60;;;;;;5024587;28;44811;-75
2021/12/27 11:48:20;;;;;;;3.00;2.80;;;15.90;67.80;;;;;;5026554;28;43814;-76
2021/12/27 11:59:59;;;;;;;2.77;2.57;;;16.30;66.10;;;;;;4954236;28;43990;-74
2021/12/27 12:02:27;;;;;;;2.20;2.10;;;16.40;66.10;;;;;;4965065;28;43393;-75
2021/12/27 12:04:57;;;;;;;1.80;1.80;;;16.30;66.80;;;;;;4961995;28;43993;-75
2021/12/27 12:07:51;;;;;;;2.53;2.43;;;16.30;66.30;;;;;;4948750;28;44085;-78
2021/12/27 12:10:19;;;;;;;2.40;2.30;;;16.20;66.60;;;;;;4949097;28;43996;-76
2021/12/27 12:13:15;;;;;;;2.37;2.27;;;16.10;66.70;;;;;;4949140;28;43839;-75
2021/12/27 12:16:01;;;;;;;2.57;2.47;;;16.10;66.90;;;;;;4953415;28;45877;-76
2021/12/27 12:18:29;;;;;;;2.70;2.47;;;16.00;67.00;;;;;;4948786;28;43915;-75
2021/12/27 12:20:57;;;;;;;2.33;2.20;;;16.00;67.20;;;;;;4948806;28;43403;-74
2021/12/27 12:23:54;;;;;;;4.30;2.63;;;16.00;67.30;;;;;;4947404;28;43549;-75
2021/12/27 12:26:22;;;;;;;2.83;2.50;;;15.90;67.30;;;;;;4947298;28;45690;-74
2021/12/27 12:28:59;;;;;;;6.83;2.70;;;15.90;67.40;;;;;;4962949;28;45781;-75
2021/12/27 12:31:32;;;;;;;4.87;2.33;;;15.90;67.50;;;;;;4948794;28;44059;-75
2021/12/27 12:34:10;;;;;;;3.93;2.70;;;16.00;67.30;;;;;;4948942;28;44005;-74
2021/12/27 12:36:46;;;;;;;2.63;2.23;;;16.10;67.00;;;;;;4948511;28;43944;-74
2021/12/27 12:39:14;;;;;;;5.30;2.47;;;16.10;66.80;;;;;;4948204;28;43486;-74
2021/12/27 12:41:42;;;;;;;2.30;2.20;;;16.10;66.90;;;;;;4946983;28;43911;-74
2021/12/27 12:44:10;;;;;;;3.77;2.50;;;16.10;67.10;;;;;;4947225;28;44050;-75
2021/12/27 12:46:41;;;;;;;5.07;2.17;;;16.00;67.20;;;;;;4946987;28;45841;-74
2021/12/27 12:49:10;;;;;;;5.77;2.63;;;16.00;67.40;;;;;;4948250;28;43832;-75
2021/12/27 12:51:40;;;;;;;2.90;2.60;;;15.90;67.40;;;;;;4947025;28;44051;-74
2021/12/27 12:54:11;;;;;;;4.83;2.27;;;15.90;67.50;;;;;;4947260;28;43506;-74
2021/12/27 12:56:40;;;;;;;3.90;2.50;;;15.90;67.60;;;;;;4946559;28;46675;-76
2021/12/27 12:59:17;;;;;;;3.30;2.23;;;15.90;67.80;;;;;;4948101;28;43926;-75
2021/12/27 13:02:00;;;;;;;3.57;2.50;;;15.90;67.80;;;;;;4946436;28;43982;-75
2021/12/27 13:04:44;;;;;;;3.67;2.57;;;15.90;67.90;;;;;;4945882;28;43797;-75
2021/12/27 13:07:12;;;;;;;2.67;2.47;;;15.90;67.90;;;;;;4956692;28;43615;-77